createdAt,value
2018-03-29T00:00:49.752Z,14.00
2018-03-29T00:03:18.575Z,13.53
2018-03-29T00:05:46.610Z,13.40
2018-03-29T00:08:15.881Z,13.13
2018-03-29T00:10:44.083Z,12.57
2018-03-29T00:13:12.200Z,10.50
2018-03-29T00:15:40.461Z,9.23
2018-03-29T00:18:09.498Z,9.07
2018-03-29T00:20:38.063Z,8.47
2018-03-29T00:23:05.640Z,7.27
2018-03-29T00:25:33.304Z,5.63
2018-03-29T00:28:00.889Z,6.67
2018-03-29T00:30:28.537Z,6.47
2018-03-29T00:32:56.124Z,7.90
2018-03-29T00:35:24.055Z,7.30
2018-03-29T00:37:52.462Z,7.57
2018-03-29T00:40:20.899Z,8.43
2018-03-29T00:42:48.486Z,6.93
2018-03-29T00:46:45.292Z,7.37
2018-03-29T00:49:12.875Z,7.43
2018-03-29T00:51:41.284Z,8.90
2018-03-29T00:54:08.879Z,8.30
2018-03-29T00:56:36.488Z,9.77
2018-03-29T00:59:04.082Z,8.83
2018-03-29T01:01:32.463Z,9.07
2018-03-29T01:04:00.837Z,9.80
2018-03-29T01:06:28.468Z,10.30
2018-03-29T01:08:56.067Z,11.07
2018-03-29T01:11:23.774Z,11.47
2018-03-29T01:13:51.886Z,9.10
2018-03-29T01:16:19.516Z,9.77
2018-03-29T01:18:47.103Z,8.70
2018-03-29T01:21:14.692Z,8.70
2018-03-29T01:23:43.046Z,8.47
2018-03-29T01:26:10.639Z,8.47
2018-03-29T01:28:38.990Z,7.13
2018-03-29T01:31:06.582Z,7.77
2018-03-29T01:33:34.156Z,7.93
2018-03-29T01:36:01.758Z,8.03
2018-03-29T01:38:30.117Z,7.10
2018-03-29T01:40:57.714Z,6.07
2018-03-29T01:43:25.415Z,7.27
2018-03-29T01:45:53.039Z,7.73
2018-03-29T01:48:21.407Z,6.90
2018-03-29T01:50:48.990Z,6.67
2018-03-29T01:53:17.347Z,6.30
2018-03-29T01:55:44.960Z,7.10
2018-03-29T01:58:12.593Z,6.87
2018-03-29T02:00:40.246Z,6.50
2018-03-29T02:03:07.825Z,6.70
2018-03-29T02:05:36.179Z,6.33
2018-03-29T02:08:03.773Z,7.03
2018-03-29T02:10:31.383Z,6.40
2018-03-29T02:12:59.019Z,6.67
2018-03-29T02:15:26.599Z,6.77
2018-03-29T02:17:54.159Z,6.83
2018-03-29T02:20:21.757Z,7.10
2018-03-29T02:22:50.094Z,7.67
2018-03-29T02:25:17.686Z,7.30
2018-03-29T02:27:45.284Z,6.83
2018-03-29T02:30:13.660Z,5.77
2018-03-29T02:32:41.240Z,5.50
2018-03-29T02:35:09.764Z,5.60
2018-03-29T02:37:38.595Z,5.60
2018-03-29T02:40:06.190Z,5.00
2018-03-29T02:42:33.762Z,5.07
2018-03-29T02:45:01.350Z,4.67
2018-03-29T02:47:29.696Z,4.77
2018-03-29T02:49:57.265Z,4.93
2018-03-29T02:52:24.867Z,5.10
2018-03-29T02:54:52.468Z,5.20
2018-03-29T02:57:20.092Z,4.97
2018-03-29T02:59:47.686Z,5.83
2018-03-29T03:02:15.249Z,5.53
2018-03-29T03:04:43.586Z,5.43
2018-03-29T03:07:11.182Z,5.03
2018-03-29T03:09:39.128Z,5.07
2018-03-29T03:12:07.499Z,5.23
2018-03-29T03:14:35.068Z,6.07
2018-03-29T03:17:02.663Z,5.57
2018-03-29T03:19:31.059Z,5.37
2018-03-29T03:21:59.541Z,5.40
2018-03-29T03:24:27.179Z,5.60
2018-03-29T03:26:54.764Z,6.37
2018-03-29T03:29:22.374Z,6.40
2018-03-29T03:31:50.766Z,6.63
2018-03-29T03:34:19.116Z,7.30
2018-03-29T03:36:46.707Z,6.60
2018-03-29T03:39:14.284Z,7.13
2018-03-29T03:41:41.920Z,5.53
2018-03-29T03:44:09.552Z,5.77
2018-03-29T03:46:38.179Z,5.30
2018-03-29T03:49:05.765Z,6.03
2018-03-29T03:51:33.347Z,5.53
2018-03-29T03:54:00.954Z,5.03
2018-03-29T03:56:29.318Z,5.13
2018-03-29T03:58:56.898Z,5.47
2018-03-29T04:01:24.588Z,4.93
2018-03-29T04:03:53.010Z,5.37
2018-03-29T04:06:20.587Z,4.40
2018-03-29T04:08:48.198Z,5.17
2018-03-29T04:11:15.774Z,4.93
2018-03-29T04:13:43.417Z,4.30
2018-03-29T04:16:10.985Z,4.80
2018-03-29T04:18:39.382Z,4.60
2018-03-29T04:21:10.373Z,4.97
2018-03-29T04:23:38.132Z,4.43
2018-03-29T04:26:05.692Z,4.67
2018-03-29T04:28:33.287Z,4.43
2018-03-29T04:31:00.899Z,4.63
2018-03-29T04:33:29.262Z,4.63
2018-03-29T04:35:57.675Z,4.63
2018-03-29T04:38:25.290Z,4.70
2018-03-29T04:40:52.847Z,4.30
2018-03-29T04:43:20.440Z,5.00
2018-03-29T04:45:48.008Z,4.90
2018-03-29T04:48:15.585Z,4.63
2018-03-29T04:50:43.178Z,4.87
2018-03-29T04:53:11.326Z,4.63
2018-03-29T04:55:39.223Z,4.63
2018-03-29T04:58:06.784Z,4.20
2018-03-29T05:00:34.378Z,4.63
2018-03-29T05:03:02.006Z,4.63
2018-03-29T05:05:29.591Z,4.83
2018-03-29T05:07:58.359Z,4.90
2018-03-29T05:10:26.751Z,5.13
2018-03-29T05:12:55.136Z,5.53
2018-03-29T05:15:23.525Z,5.87
2018-03-29T05:17:51.132Z,5.37
2018-03-29T05:20:18.746Z,5.20
2018-03-29T05:22:46.352Z,4.80
2018-03-29T05:25:13.997Z,4.50
2018-03-29T05:27:47.881Z,5.10
2018-03-29T05:30:16.281Z,4.27
2018-03-29T05:32:43.957Z,4.60
2018-03-29T05:35:11.601Z,4.37
2018-03-29T05:37:40.084Z,4.63
2018-03-29T05:40:07.688Z,4.57
2018-03-29T05:42:35.380Z,4.80
2018-03-29T05:45:02.945Z,4.63
2018-03-29T05:47:30.597Z,4.60
2018-03-29T05:49:58.251Z,4.63
2018-03-29T05:52:25.949Z,5.17
2018-03-29T05:54:53.561Z,4.63
2018-03-29T05:57:21.195Z,5.27
2018-03-29T05:59:48.777Z,4.50
2018-03-29T06:02:16.702Z,4.43
2018-03-29T06:04:44.383Z,4.60
2018-03-29T06:07:12.683Z,5.07
2018-03-29T06:09:41.060Z,5.60
2018-03-29T06:12:08.664Z,5.80
2018-03-29T06:14:42.678Z,5.37
2018-03-29T06:17:16.819Z,5.57
2018-03-29T06:19:45.168Z,6.50
2018-03-29T06:22:12.831Z,6.30
2018-03-29T06:24:40.535Z,5.83
2018-03-29T06:27:08.712Z,6.47
2018-03-29T06:29:37.245Z,6.20
2018-03-29T06:32:06.487Z,6.43
2018-03-29T06:34:34.101Z,7.67
2018-03-29T06:37:02.794Z,7.20
2018-03-29T06:39:31.260Z,6.93
2018-03-29T06:41:59.082Z,7.37
2018-03-29T06:44:26.844Z,7.23
2018-03-29T06:46:54.500Z,7.50
2018-03-29T06:49:23.664Z,7.57
2018-03-29T06:51:51.534Z,8.00
2018-03-29T06:54:19.226Z,8.53
2018-03-29T06:56:46.828Z,7.53
2018-03-29T06:59:14.484Z,8.13
2018-03-29T07:01:42.150Z,9.03
2018-03-29T07:04:09.788Z,8.00
2018-03-29T07:06:39.006Z,8.93
2018-03-29T07:09:07.912Z,7.67
2018-03-29T07:11:35.560Z,7.53
2018-03-29T07:14:03.181Z,7.73
2018-03-29T07:16:30.915Z,7.63
2018-03-29T07:18:58.516Z,7.67
2018-03-29T07:21:26.812Z,7.57
2018-03-29T07:23:54.485Z,7.90
2018-03-29T07:26:22.142Z,7.47
2018-03-29T07:28:50.565Z,7.87
2018-03-29T07:31:18.228Z,8.13
2018-03-29T07:33:47.501Z,8.03
2018-03-29T07:36:15.142Z,8.03
2018-03-29T07:38:43.387Z,8.47
2018-03-29T07:41:11.752Z,9.30
2018-03-29T07:43:41.020Z,8.77
2018-03-29T07:46:11.997Z,8.07
2018-03-29T07:48:41.449Z,8.37
2018-03-29T07:51:09.881Z,8.47
2018-03-29T07:53:39.666Z,9.57
2018-03-29T07:56:07.277Z,9.80
2018-03-29T07:58:34.889Z,8.83
2018-03-29T08:01:03.207Z,9.80
2018-03-29T08:03:30.818Z,9.57
2018-03-29T08:05:58.495Z,11.10
2018-03-29T08:08:26.120Z,10.13
2018-03-29T08:10:54.540Z,9.77
2018-03-29T08:13:22.206Z,10.80
2018-03-29T08:15:49.803Z,10.50
2018-03-29T08:18:18.974Z,10.50
2018-03-29T08:20:46.643Z,10.30
2018-03-29T08:23:14.273Z,10.67
2018-03-29T08:25:41.849Z,11.40
2018-03-29T08:28:09.523Z,11.20
2018-03-29T08:30:37.141Z,11.77
2018-03-29T08:33:04.801Z,11.23
2018-03-29T08:35:32.410Z,11.63
2018-03-29T08:38:00.010Z,11.17
2018-03-29T08:40:27.600Z,12.43
2018-03-29T08:42:55.319Z,11.57
2018-03-29T08:45:23.679Z,12.40
2018-03-29T08:47:51.321Z,13.17
2018-03-29T08:50:18.955Z,13.77
2018-03-29T08:52:46.583Z,12.23
2018-03-29T08:55:14.206Z,13.33
2018-03-29T08:57:41.797Z,12.27
2018-03-29T09:00:10.143Z,13.03
2018-03-29T09:02:38.520Z,12.43
2018-03-29T09:06:33.229Z,12.57
2018-03-29T09:09:00.812Z,12.03
2018-03-29T09:11:28.397Z,11.10
2018-03-29T09:13:55.995Z,11.23
2018-03-29T09:16:23.729Z,10.87
2018-03-29T09:18:51.487Z,11.67
2018-03-29T09:21:20.817Z,11.00
2018-03-29T09:23:49.226Z,10.80
2018-03-29T09:26:17.577Z,10.60
2018-03-29T09:28:45.660Z,10.83
2018-03-29T09:31:13.260Z,11.10
2018-03-29T09:33:40.908Z,12.97
2018-03-29T09:36:08.632Z,12.00
2018-03-29T09:38:36.587Z,13.03
2018-03-29T09:41:05.039Z,12.53
2018-03-29T09:43:33.700Z,12.93
2018-03-29T09:46:01.807Z,11.37
2018-03-29T09:48:29.948Z,12.90
2018-03-29T09:50:58.356Z,11.87
2018-03-29T09:53:26.005Z,11.93
2018-03-29T09:55:53.620Z,11.67
2018-03-29T09:58:21.797Z,10.77
2018-03-29T10:00:49.856Z,11.33
2018-03-29T10:03:22.861Z,12.30
2018-03-29T10:05:52.029Z,11.30
2018-03-29T10:08:21.377Z,10.97
2018-03-29T10:10:49.092Z,11.57
2018-03-29T10:13:17.692Z,11.53
2018-03-29T10:15:45.295Z,10.80
2018-03-29T10:18:12.895Z,10.60
2018-03-29T10:20:40.461Z,11.03
2018-03-29T10:23:08.029Z,11.40
2018-03-29T10:25:35.639Z,10.87
2018-03-29T10:28:03.215Z,10.37
2018-03-29T10:30:30.826Z,11.57
2018-03-29T10:32:59.849Z,10.50
2018-03-29T10:35:30.330Z,10.03
2018-03-29T10:38:00.770Z,10.73
2018-03-29T10:40:28.404Z,10.67
2018-03-29T10:42:56.033Z,9.80
2018-03-29T10:45:23.632Z,10.30
2018-03-29T10:47:51.236Z,10.40
2018-03-29T10:50:18.911Z,10.57
2018-03-29T10:52:47.333Z,10.30
2018-03-29T10:55:14.906Z,11.40
2018-03-29T10:57:42.500Z,9.97
2018-03-29T11:00:11.365Z,11.07
2018-03-29T11:02:39.134Z,9.67
2018-03-29T11:05:06.700Z,9.57
2018-03-29T11:07:35.038Z,8.10
2018-03-29T11:10:02.642Z,8.37
2018-03-29T11:12:30.632Z,6.87
2018-03-29T11:14:58.292Z,6.13
2018-03-29T11:17:26.102Z,6.70
2018-03-29T11:19:54.443Z,7.23
2018-03-29T11:22:22.062Z,6.77
2018-03-29T11:24:50.420Z,5.60
2018-03-29T11:27:18.011Z,4.53
2018-03-29T11:29:45.602Z,5.57
2018-03-29T11:32:13.957Z,5.63
2018-03-29T11:34:41.797Z,6.03
2018-03-29T11:37:09.427Z,6.37
2018-03-29T11:39:37.065Z,6.73
2018-03-29T11:42:05.702Z,6.90
2018-03-29T11:44:34.057Z,6.73
2018-03-29T11:47:01.714Z,7.00
2018-03-29T11:49:29.329Z,7.10
2018-03-29T11:51:56.943Z,7.60
2018-03-29T11:54:24.567Z,7.07
2018-03-29T11:56:53.107Z,6.87
2018-03-29T11:59:22.792Z,7.60
2018-03-29T12:01:50.742Z,7.53
2018-03-29T12:04:18.372Z,7.17
2018-03-29T12:06:46.734Z,7.70
2018-03-29T12:09:17.266Z,7.47
2018-03-29T12:11:44.858Z,6.70
2018-03-29T12:14:13.235Z,6.40
2018-03-29T12:16:40.865Z,7.30
2018-03-29T12:19:08.529Z,6.33
2018-03-29T12:21:36.127Z,6.47
2018-03-29T12:24:03.834Z,6.70
2018-03-29T12:26:31.488Z,6.27
2018-03-29T12:28:59.112Z,6.90
2018-03-29T12:31:27.073Z,6.23
2018-03-29T12:33:54.936Z,7.10
2018-03-29T12:36:25.516Z,6.33
2018-03-29T12:38:53.899Z,6.37
2018-03-29T12:41:22.288Z,6.30
2018-03-29T12:43:50.685Z,5.20
2018-03-29T12:46:19.046Z,5.20
2018-03-29T12:48:46.668Z,5.57
2018-03-29T12:51:14.263Z,5.27
2018-03-29T12:53:41.887Z,5.60
2018-03-29T12:56:22.277Z,5.77
2018-03-29T12:58:49.948Z,4.30
2018-03-29T13:01:17.607Z,3.80
2018-03-29T13:03:45.213Z,4.50
2018-03-29T13:06:12.808Z,4.30
2018-03-29T13:08:40.399Z,5.10
2018-03-29T13:11:09.507Z,4.73
2018-03-29T13:13:38.721Z,5.23
2018-03-29T13:16:06.283Z,5.77
2018-03-29T13:18:33.839Z,5.10
2018-03-29T13:21:01.439Z,4.97
2018-03-29T13:23:29.955Z,4.90
2018-03-29T13:25:58.331Z,4.80
2018-03-29T13:28:25.917Z,5.23
2018-03-29T13:30:53.538Z,3.47
2018-03-29T13:33:21.131Z,2.47
2018-03-29T13:35:48.774Z,2.47
2018-03-29T13:38:16.872Z,2.30
2018-03-29T13:40:44.526Z,2.30
2018-03-29T13:43:12.105Z,2.80
2018-03-29T13:45:39.755Z,2.97
2018-03-29T13:48:07.394Z,3.20
2018-03-29T13:50:34.995Z,3.30
2018-03-29T13:53:03.344Z,3.03
2018-03-29T13:55:30.974Z,3.03
2018-03-29T13:57:58.572Z,3.37
2018-03-29T14:00:26.213Z,3.50
2018-03-29T14:02:53.904Z,3.30
2018-03-29T14:05:21.791Z,2.30
2018-03-29T14:07:49.560Z,3.00
2018-03-29T14:10:17.232Z,2.57
2018-03-29T14:12:44.881Z,2.73
2018-03-29T14:15:12.485Z,2.20
2018-03-29T14:17:41.012Z,4.10
2018-03-29T14:20:09.391Z,2.80
2018-03-29T14:22:37.024Z,2.70
2018-03-29T14:25:04.677Z,2.73
2018-03-29T14:27:32.296Z,3.27
2018-03-29T14:30:00.005Z,3.30
2018-03-29T14:32:27.636Z,3.27
2018-03-29T14:34:55.283Z,2.90
2018-03-29T14:37:22.939Z,2.10
2018-03-29T14:39:51.318Z,3.43
2018-03-29T14:42:18.907Z,1.77
2018-03-29T14:44:47.442Z,2.10
2018-03-29T14:47:15.044Z,1.90
2018-03-29T14:49:42.720Z,1.80
2018-03-29T14:52:10.321Z,2.00
2018-03-29T14:54:39.827Z,2.10
2018-03-29T14:57:07.503Z,2.50
2018-03-29T14:59:36.081Z,2.73
2018-03-29T15:02:03.817Z,2.97
2018-03-29T15:04:31.628Z,2.90
2018-03-29T15:06:59.251Z,3.10
2018-03-29T15:09:27.657Z,3.13
2018-03-29T15:11:55.294Z,3.20
2018-03-29T15:17:01.342Z,3.70
2018-03-29T15:19:32.632Z,2.97
2018-03-29T15:22:00.952Z,3.40
2018-03-29T15:24:29.329Z,3.53
2018-03-29T15:26:57.536Z,3.40
2018-03-29T15:29:25.907Z,3.33
2018-03-29T15:31:55.010Z,3.60
2018-03-29T15:34:22.685Z,3.70
2018-03-29T15:36:50.247Z,3.97
2018-03-29T15:39:18.628Z,3.60
2018-03-29T15:41:47.027Z,3.47
2018-03-29T15:44:15.438Z,3.90
2018-03-29T15:46:43.078Z,3.83
2018-03-29T15:49:10.654Z,3.90
2018-03-29T15:51:38.648Z,3.50
2018-03-29T15:54:06.248Z,3.63
2018-03-29T15:56:35.321Z,3.60
2018-03-29T15:59:03.001Z,3.20
2018-03-29T16:01:30.621Z,3.60
2018-03-29T16:03:58.239Z,3.00
2018-03-29T16:06:25.899Z,3.10
2018-03-29T16:08:53.511Z,2.90
2018-03-29T16:11:21.148Z,3.13
2018-03-29T16:13:48.790Z,2.70
2018-03-29T16:16:17.224Z,3.27
2018-03-29T16:18:44.815Z,3.10
2018-03-29T16:21:12.658Z,2.90
2018-03-29T16:23:40.252Z,2.90
2018-03-29T16:26:08.335Z,3.23
2018-03-29T16:28:36.839Z,2.50
2018-03-29T16:31:05.888Z,3.03
2018-03-29T16:33:33.487Z,2.90
2018-03-29T16:36:01.307Z,3.10
2018-03-29T16:38:30.627Z,3.40
2018-03-29T16:40:58.464Z,3.03
2018-03-29T16:43:26.188Z,3.23
2018-03-29T16:45:53.862Z,3.07
2018-03-29T16:48:21.593Z,3.40
2018-03-29T16:50:50.700Z,2.80
2018-03-29T16:53:19.387Z,3.10
2018-03-29T16:55:47.027Z,3.20
2018-03-29T16:58:14.647Z,3.00
2018-03-29T17:00:42.391Z,2.97
2018-03-29T17:03:10.226Z,4.10
2018-03-29T17:05:38.144Z,3.33
2018-03-29T17:08:05.750Z,3.10
2018-03-29T17:10:33.375Z,3.30
2018-03-29T17:13:01.760Z,2.90
2018-03-29T17:15:29.395Z,3.37
2018-03-29T17:17:56.995Z,3.10
2018-03-29T17:20:24.928Z,3.27
2018-03-29T17:22:52.601Z,3.03
2018-03-29T17:25:20.194Z,3.30
2018-03-29T17:27:47.864Z,2.87
2018-03-29T17:30:15.496Z,2.87
2018-03-29T17:32:44.914Z,3.20
2018-03-29T17:35:13.437Z,4.53
2018-03-29T17:37:41.102Z,11.83
2018-03-29T17:40:08.751Z,30.53
2018-03-29T17:42:37.178Z,29.77
2018-03-29T17:45:04.750Z,7.60
2018-03-29T17:47:33.399Z,4.40
2018-03-29T17:50:01.772Z,3.33
2018-03-29T17:52:29.346Z,3.20
2018-03-29T17:54:57.003Z,3.13
2018-03-29T17:57:24.628Z,3.43
2018-03-29T17:59:52.341Z,3.07
2018-03-29T18:02:20.692Z,3.30
2018-03-29T18:04:49.071Z,3.20
2018-03-29T18:07:17.982Z,3.03
2018-03-29T18:09:45.910Z,3.20
2018-03-29T18:12:14.592Z,3.30
2018-03-29T18:14:42.365Z,3.30
2018-03-29T18:17:10.092Z,3.50
2018-03-29T18:19:37.761Z,3.40
2018-03-29T18:22:05.403Z,3.47
2018-03-29T18:24:32.961Z,3.50
2018-03-29T18:27:00.549Z,5.13
2018-03-29T18:29:28.140Z,11.90
2018-03-29T18:31:56.910Z,6.43
2018-03-29T18:34:24.484Z,4.50
2018-03-29T18:36:52.076Z,4.27
2018-03-29T18:39:19.654Z,4.57
2018-03-29T18:41:47.233Z,4.90
2018-03-29T18:44:14.801Z,4.37
2018-03-29T18:46:42.363Z,4.23
2018-03-29T18:49:10.732Z,3.83
2018-03-29T18:51:38.585Z,4.37
2018-03-29T18:54:06.920Z,28.00
2018-03-29T18:56:34.493Z,24.60
2018-03-29T18:59:02.076Z,14.50
2018-03-29T19:01:29.660Z,5.80
2018-03-29T19:03:57.337Z,4.97
2018-03-29T19:06:24.907Z,4.43
2018-03-29T19:08:53.245Z,4.37
2018-03-29T19:11:21.128Z,3.90
2018-03-29T19:13:48.715Z,4.30
2018-03-29T19:16:16.363Z,4.33
2018-03-29T19:18:43.962Z,4.00
2018-03-29T19:21:11.570Z,4.13
2018-03-29T19:23:39.419Z,13.70
2018-03-29T19:26:07.011Z,11.30
2018-03-29T19:28:34.590Z,6.90
2018-03-29T19:31:02.242Z,5.57
2018-03-29T19:33:29.826Z,5.30
2018-03-29T19:35:57.417Z,4.80
2018-03-29T19:38:24.994Z,4.43
2018-03-29T19:40:53.345Z,4.33
2018-03-29T19:43:20.924Z,4.23
2018-03-29T19:45:49.338Z,4.43
2018-03-29T19:48:17.671Z,4.30
2018-03-29T19:50:45.268Z,4.23
2018-03-29T19:53:13.603Z,4.47
2018-03-29T19:55:42.433Z,4.33
2018-03-29T19:58:10.111Z,4.30
2018-03-29T20:00:38.027Z,4.60
2018-03-29T20:03:06.428Z,4.20
2018-03-29T20:05:34.945Z,3.83
2018-03-29T20:08:02.666Z,3.90
2018-03-29T20:10:30.323Z,4.80
2018-03-29T20:12:57.934Z,4.10
2018-03-29T20:15:26.361Z,4.60
2018-03-29T20:17:55.284Z,4.60
2018-03-29T20:20:22.883Z,4.10
2018-03-29T20:22:51.096Z,4.60
2018-03-29T20:25:19.148Z,6.53
2018-03-29T20:27:46.723Z,4.67
2018-03-29T20:30:14.305Z,4.70
2018-03-29T20:32:41.933Z,4.20
2018-03-29T20:35:10.271Z,4.20
2018-03-29T20:37:37.937Z,4.43
2018-03-29T20:40:05.588Z,10.70
2018-03-29T20:42:34.391Z,16.37
2018-03-29T20:45:02.003Z,16.97
2018-03-29T20:47:29.597Z,7.43
2018-03-29T20:49:57.383Z,63.53
2018-03-29T20:52:25.045Z,27.07
2018-03-29T20:54:52.656Z,14.37
2018-03-29T20:57:21.227Z,6.67
2018-03-29T20:59:49.997Z,4.00
2018-03-29T21:02:18.562Z,4.13
2018-03-29T21:04:46.133Z,3.73
2018-03-29T21:07:13.713Z,4.03
2018-03-29T21:09:41.288Z,4.10
2018-03-29T21:12:08.877Z,4.47
2018-03-29T21:14:36.450Z,4.90
2018-03-29T21:17:04.042Z,5.17
2018-03-29T21:19:31.635Z,4.93
2018-03-29T21:21:59.268Z,4.70
2018-03-29T21:24:26.838Z,4.43
2018-03-29T21:26:55.137Z,4.87
2018-03-29T21:29:22.699Z,4.70
2018-03-29T21:31:51.060Z,5.30
2018-03-29T21:34:18.635Z,5.23
2018-03-29T21:36:46.267Z,5.93
2018-03-29T21:39:13.906Z,4.93
2018-03-29T21:41:42.128Z,5.00
2018-03-29T21:44:09.782Z,5.57
2018-03-29T21:46:37.503Z,4.67
2018-03-29T21:49:05.156Z,4.83
2018-03-29T21:51:33.538Z,5.20
2018-03-29T21:54:01.116Z,5.33
2018-03-29T21:56:28.686Z,5.50
2018-03-29T21:58:57.165Z,5.50
2018-03-29T22:01:26.144Z,5.67
2018-03-29T22:03:53.881Z,5.77
2018-03-29T22:06:21.494Z,5.30
2018-03-29T22:08:49.069Z,6.67
2018-03-29T22:11:18.021Z,6.80
2018-03-29T22:13:50.791Z,5.97
2018-03-29T22:16:18.406Z,5.80
2018-03-29T22:18:47.140Z,5.50
2018-03-29T22:21:14.791Z,6.13
2018-03-29T22:23:42.414Z,6.10
2018-03-29T22:26:11.483Z,5.80
2018-03-29T22:28:40.008Z,5.63
2018-03-29T22:31:07.618Z,6.77
2018-03-29T22:33:35.991Z,6.07
2018-03-29T22:36:04.426Z,6.50
2018-03-29T22:38:32.048Z,5.83
2018-03-29T22:40:59.684Z,6.67
2018-03-29T22:43:27.467Z,6.60
2018-03-29T22:45:55.231Z,6.97
2018-03-29T22:48:24.082Z,6.57
2018-03-29T22:50:51.977Z,6.60
2018-03-29T22:53:20.330Z,6.70
2018-03-29T22:55:47.903Z,6.47
2018-03-29T22:58:15.733Z,6.90
2018-03-29T23:00:43.328Z,6.87
2018-03-29T23:03:11.025Z,6.20
2018-03-29T23:05:41.031Z,6.33
2018-03-29T23:08:08.649Z,5.70
2018-03-29T23:10:36.243Z,5.40
2018-03-29T23:13:04.638Z,6.10
2018-03-29T23:15:33.060Z,5.77
2018-03-29T23:18:00.657Z,6.10
2018-03-29T23:20:28.397Z,6.60
2018-03-29T23:22:56.360Z,6.17
2018-03-29T23:25:24.090Z,6.77
2018-03-29T23:27:51.877Z,6.10
2018-03-29T23:30:19.479Z,6.07
2018-03-29T23:32:47.826Z,5.80
2018-03-29T23:35:15.621Z,6.00
2018-03-29T23:37:44.018Z,6.47
2018-03-29T23:40:13.103Z,6.57
2018-03-29T23:42:40.877Z,6.13
2018-03-29T23:45:08.640Z,6.20
2018-03-29T23:47:36.237Z,6.80
2018-03-29T23:50:03.843Z,6.70
2018-03-29T23:52:32.405Z,6.20
2018-03-29T23:55:00.992Z,6.57
2018-03-29T23:57:31.096Z,6.13
2018-03-29T23:59:58.703Z,6.20
